Time;durP1;ratioP1;P1;durP2;ratioP2;P2;SDS_P1;SDS_P2;PMS_P1;PMS_P2;Temp;Humidity;BMP_temperature;BMP_pressure;BME280_temperature;BME280_humidity;BME280_pressure;Samples;Min_cycle;Max_cycle;Signal;HPM_P1;HPM_P2
2023/12/08 00:00:07;;;;;;;;;;;3.30;84.90;;;;;;4996693;28;92859;-45
2023/12/08 00:02:33;;;;;;;;;;;3.30;85.00;;;;;;4993181;28;92497;-47
2023/12/08 00:04:59;;;;;;;;;;;3.30;85.00;;;;;;4999011;28;92035;-47
2023/12/08 00:07:24;;;;;;;;;;;3.30;84.90;;;;;;4996176;28;91947;-46
2023/12/08 00:09:50;;;;;;;;;;;3.30;85.00;;;;;;5000535;28;91542;-48
2023/12/08 00:12:15;;;;;;;;;;;3.30;85.00;;;;;;4996340;28;92108;-47
2023/12/08 00:14:41;;;;;;;;;;;3.30;84.90;;;;;;4994476;28;93582;-45
2023/12/08 00:17:07;;;;;;;;;;;3.30;84.80;;;;;;4996199;28;93056;-47
2023/12/08 00:19:32;;;;;;;;;;;3.30;84.90;;;;;;4997554;28;93899;-46
2023/12/08 00:21:58;;;;;;;;;;;3.20;84.80;;;;;;4996113;28;92594;-46
2023/12/08 00:24:24;;;;;;;;;;;3.30;84.80;;;;;;4997585;28;92336;-46
2023/12/08 00:26:50;;;;;;;;;;;3.20;84.70;;;;;;4995261;28;93105;-46
2023/12/08 00:29:19;;;;;;;;;;;3.20;84.80;;;;;;5002198;28;92175;-46
2023/12/08 00:31:44;;;;;;;;;;;3.20;84.90;;;;;;4996400;28;92996;-46
2023/12/08 00:34:10;;;;;;;;;;;3.20;84.90;;;;;;4994354;28;92024;-47
2023/12/08 00:36:36;;;;;;;;;;;3.20;84.90;;;;;;4993026;28;92004;-46
2023/12/08 00:39:02;;;;;;;;;;;3.20;84.90;;;;;;4996126;28;91999;-46
2023/12/08 00:41:27;;;;;;;;;;;3.20;85.00;;;;;;4992374;28;93482;-46
2023/12/08 00:43:53;;;;;;;;;;;3.20;85.00;;;;;;4995178;28;92582;-47
2023/12/08 00:46:18;;;;;;;;;;;3.20;85.50;;;;;;4996255;28;92958;-47
2023/12/08 00:48:44;;;;;;;;;;;3.20;84.90;;;;;;4995888;28;92478;-46
2023/12/08 00:51:13;;;;;;;;;;;3.20;84.90;;;;;;4998092;28;92043;-46
2023/12/08 00:53:39;;;;;;;;;;;3.20;84.90;;;;;;4993173;28;92509;-47
2023/12/08 00:56:05;;;;;;;;;;;3.10;85.00;;;;;;4996402;28;92144;-47
2023/12/08 00:58:31;;;;;;;;;;;3.10;84.90;;;;;;4995404;28;91782;-46
2023/12/08 01:00:56;;;;;;;;;;;3.10;84.90;;;;;;4992223;28;92495;-46
2023/12/08 01:03:22;;;;;;;;;;;3.10;85.00;;;;;;4995732;28;92230;-45
2023/12/08 01:05:48;;;;;;;;;;;3.10;85.10;;;;;;4996299;28;93070;-48
2023/12/08 01:08:13;;;;;;;;;;;3.10;85.00;;;;;;4994126;28;92611;-46
2023/12/08 01:10:39;;;;;;;;;;;3.10;85.00;;;;;;5001050;28;92190;-46
2023/12/08 01:13:04;;;;;;;;;;;3.10;85.20;;;;;;4998654;28;93060;-47
2023/12/08 01:15:30;;;;;;;;;;;3.10;85.00;;;;;;4991904;28;92068;-47
2023/12/08 01:17:55;;;;;;;;;;;3.10;84.90;;;;;;4994593;28;92054;-47
2023/12/08 01:20:21;;;;;;;;;;;3.10;85.10;;;;;;4993060;28;92521;-46
2023/12/08 01:22:46;;;;;;;;;;;3.10;85.20;;;;;;4993543;28;91469;-46
2023/12/08 01:25:12;;;;;;;;;;;3.10;85.30;;;;;;4990711;28;92065;-47
2023/12/08 01:27:38;;;;;;;;;;;3.10;85.20;;;;;;4992647;28;92591;-45
2023/12/08 01:30:05;;;;;;;;;;;3.10;85.20;;;;;;4994347;28;92984;-46
2023/12/08 01:32:30;;;;;;;;;;;3.10;85.10;;;;;;5000017;28;93784;-46
2023/12/08 01:34:56;;;;;;;;;;;3.10;85.30;;;;;;4987359;28;91959;-45
2023/12/08 01:37:22;;;;;;;;;;;3.10;85.20;;;;;;4994926;28;92900;-47
2023/12/08 01:39:48;;;;;;;;;;;3.10;85.20;;;;;;4994782;28;92635;-46
2023/12/08 01:42:13;;;;;;;;;;;3.10;85.30;;;;;;4996409;28;92028;-46
2023/12/08 01:44:39;;;;;;;;;;;3.10;85.40;;;;;;4995472;28;92771;-45
2023/12/08 01:47:06;;;;;;;;;;;3.10;85.30;;;;;;4995369;28;91749;-46
2023/12/08 01:49:32;;;;;;;;;;;3.10;85.20;;;;;;4993646;28;92073;-46
2023/12/08 01:51:58;;;;;;;;;;;3.10;85.00;;;;;;4995637;28;92603;-48
2023/12/08 01:54:24;;;;;;;;;;;3.10;85.00;;;;;;4995845;28;93572;-47
2023/12/08 01:56:49;;;;;;;;;;;3.10;85.30;;;;;;4995705;28;92607;-47
2023/12/08 01:59:15;;;;;;;;;;;3.10;85.10;;;;;;4991797;28;92639;-46
2023/12/08 02:01:40;;;;;;;;;;;3.10;85.20;;;;;;4998627;28;92089;-47
2023/12/08 02:04:06;;;;;;;;;;;3.10;84.90;;;;;;4994837;28;91980;-46
2023/12/08 02:06:32;;;;;;;;;;;3.10;85.10;;;;;;4994252;28;92535;-48
2023/12/08 02:08:58;;;;;;;;;;;3.20;85.10;;;;;;4994265;28;92027;-46
2023/12/08 02:11:24;;;;;;;;;;;3.10;85.10;;;;;;4992633;28;91753;-45
2023/12/08 02:13:49;;;;;;;;;;;3.10;85.10;;;;;;4996662;28;93597;-46
2023/12/08 02:16:20;;;;;;;;;;;3.10;85.10;;;;;;5001075;28;92034;-46
2023/12/08 02:18:47;;;;;;;;;;;3.10;85.00;;;;;;4990020;28;92986;-46
2023/12/08 02:21:13;;;;;;;;;;;3.20;85.10;;;;;;4994595;28;92060;-47
2023/12/08 02:23:43;;;;;;;;;;;3.10;84.90;;;;;;4991024;28;92877;-47
2023/12/08 02:26:10;;;;;;;;;;;3.10;85.10;;;;;;4994332;28;92927;-46
2023/12/08 02:28:36;;;;;;;;;;;3.10;85.00;;;;;;4991316;28;92056;-46
2023/12/08 02:31:03;;;;;;;;;;;3.10;85.00;;;;;;4994588;28;91943;-46
2023/12/08 02:33:30;;;;;;;;;;;3.10;85.00;;;;;;4999876;28;95256;-46
2023/12/08 02:35:56;;;;;;;;;;;3.10;85.20;;;;;;4996165;28;91291;-47
2023/12/08 02:38:23;;;;;;;;;;;3.10;85.10;;;;;;4995674;28;92209;-47
2023/12/08 02:40:49;;;;;;;;;;;3.10;85.10;;;;;;4996768;28;92063;-47
2023/12/08 02:43:14;;;;;;;;;;;3.10;85.10;;;;;;4997131;28;92892;-47
2023/12/08 02:45:40;;;;;;;;;;;3.10;85.00;;;;;;4993300;28;93846;-46
2023/12/08 02:48:06;;;;;;;;;;;3.10;85.10;;;;;;4994510;28;92300;-46
2023/12/08 02:50:31;;;;;;;;;;;3.10;84.90;;;;;;4998727;28;92058;-46
2023/12/08 02:52:57;;;;;;;;;;;3.10;85.10;;;;;;4998000;28;92690;-46
2023/12/08 02:55:22;;;;;;;;;;;3.10;85.10;;;;;;4996713;28;91991;-45
2023/12/08 02:57:48;;;;;;;;;;;3.10;85.00;;;;;;4996989;28;92173;-46
2023/12/08 03:00:13;;;;;;;;;;;3.10;85.10;;;;;;4998167;28;91139;-47
2023/12/08 03:02:39;;;;;;;;;;;3.10;85.00;;;;;;4995329;28;92014;-47
2023/12/08 03:05:05;;;;;;;;;;;3.10;85.10;;;;;;4996159;28;93556;-46
2023/12/08 03:07:30;;;;;;;;;;;3.10;85.20;;;;;;4995818;28;92932;-47
2023/12/08 03:09:56;;;;;;;;;;;3.10;85.00;;;;;;5001126;28;92773;-47
2023/12/08 03:12:21;;;;;;;;;;;3.10;85.10;;;;;;5002630;28;92491;-47
2023/12/08 03:14:47;;;;;;;;;;;3.10;85.10;;;;;;4996558;28;92069;-46
2023/12/08 03:17:13;;;;;;;;;;;3.00;85.00;;;;;;4995547;28;92067;-46
2023/12/08 03:19:40;;;;;;;;;;;3.00;85.10;;;;;;4998976;28;93654;-46
2023/12/08 03:22:05;;;;;;;;;;;3.00;85.10;;;;;;4995554;28;92946;-47
2023/12/08 03:24:31;;;;;;;;;;;3.10;85.10;;;;;;4994184;28;91724;-47
2023/12/08 03:26:56;;;;;;;;;;;3.00;85.00;;;;;;4997668;28;92158;-46
2023/12/08 03:29:22;;;;;;;;;;;3.10;85.00;;;;;;5000004;28;92620;-47
2023/12/08 03:31:47;;;;;;;;;;;3.00;84.90;;;;;;4993805;28;95105;-48
2023/12/08 03:34:13;;;;;;;;;;;3.00;85.00;;;;;;4997994;28;93303;-45
2023/12/08 03:36:38;;;;;;;;;;;3.00;85.00;;;;;;4995156;28;92003;-47
2023/12/08 03:39:04;;;;;;;;;;;3.00;84.90;;;;;;4994581;28;92643;-47
2023/12/08 03:41:30;;;;;;;;;;;3.00;85.00;;;;;;4998957;28;92157;-47
2023/12/08 03:43:55;;;;;;;;;;;3.00;85.10;;;;;;4994956;28;92231;-46
2023/12/08 03:46:21;;;;;;;;;;;3.00;85.20;;;;;;4998566;28;92158;-46
2023/12/08 03:48:46;;;;;;;;;;;3.00;85.10;;;;;;4997931;28;91244;-46
2023/12/08 03:51:12;;;;;;;;;;;3.00;85.00;;;;;;4992162;28;92388;-47
2023/12/08 03:53:37;;;;;;;;;;;3.00;85.00;;;;;;4995220;28;92162;-46
2023/12/08 03:56:03;;;;;;;;;;;3.00;85.20;;;;;;4995942;28;92942;-47
2023/12/08 03:58:29;;;;;;;;;;;3.00;85.10;;;;;;4991911;28;93294;-46
2023/12/08 04:00:54;;;;;;;;;;;3.00;85.10;;;;;;4998515;28;92051;-45
2023/12/08 04:03:20;;;;;;;;;;;3.00;85.00;;;;;;4999903;28;92099;-46
2023/12/08 04:05:45;;;;;;;;;;;3.00;85.20;;;;;;4992085;28;92079;-46
2023/12/08 04:08:11;;;;;;;;;;;2.90;85.10;;;;;;4995626;28;92818;-46
2023/12/08 04:10:37;;;;;;;;;;;2.90;85.10;;;;;;4994977;28;92504;-46
2023/12/08 04:13:03;;;;;;;;;;;2.90;85.00;;;;;;4996204;28;91300;-47
2023/12/08 04:15:28;;;;;;;;;;;2.90;85.10;;;;;;4997028;28;92294;-46
2023/12/08 04:17:54;;;;;;;;;;;2.90;85.10;;;;;;4992845;28;92798;-47
2023/12/08 04:20:19;;;;;;;;;;;2.90;85.10;;;;;;4995687;28;93486;-47
2023/12/08 04:22:45;;;;;;;;;;;2.90;85.10;;;;;;4995804;28;92478;-47
2023/12/08 04:25:13;;;;;;;;;;;2.90;85.20;;;;;;4996086;28;92352;-46
2023/12/08 04:27:39;;;;;;;;;;;2.90;84.90;;;;;;4998907;28;91902;-47
2023/12/08 04:30:05;;;;;;;;;;;2.90;85.10;;;;;;4996447;28;91974;-47
2023/12/08 04:32:31;;;;;;;;;;;2.90;85.20;;;;;;4997841;28;92039;-46
2023/12/08 04:34:56;;;;;;;;;;;2.90;85.20;;;;;;4991078;28;93043;-46
2023/12/08 04:37:22;;;;;;;;;;;2.90;85.30;;;;;;4989571;28;92290;-46
2023/12/08 04:39:47;;;;;;;;;;;2.90;85.10;;;;;;4996343;28;94109;-45
2023/12/08 04:42:14;;;;;;;;;;;2.90;85.20;;;;;;5002260;28;92504;-46
2023/12/08 04:44:39;;;;;;;;;;;2.90;85.30;;;;;;4996779;28;93468;-47
2023/12/08 04:47:23;;;;;;;;;;;2.90;85.10;;;;;;4997973;28;92725;-46
2023/12/08 04:49:49;;;;;;;;;;;2.90;85.30;;;;;;4992816;28;92268;-47
2023/12/08 04:52:14;;;;;;;;;;;2.80;85.00;;;;;;4994525;28;92014;-46
2023/12/08 04:54:40;;;;;;;;;;;2.80;85.10;;;;;;4996109;28;93855;-46
2023/12/08 04:57:06;;;;;;;;;;;2.80;85.20;;;;;;4994836;28;92786;-49
2023/12/08 04:59:31;;;;;;;;;;;2.90;85.30;;;;;;4994272;28;92114;-47
2023/12/08 05:01:57;;;;;;;;;;;2.80;85.20;;;;;;4996740;28;91909;-46
2023/12/08 05:04:22;;;;;;;;;;;2.90;85.20;;;;;;4996374;28;92561;-47
2023/12/08 05:06:48;;;;;;;;;;;2.80;85.30;;;;;;4997625;28;91860;-47
2023/12/08 05:09:13;;;;;;;;;;;2.80;85.40;;;;;;4993194;28;93421;-46
2023/12/08 05:11:39;;;;;;;;;;;2.80;85.30;;;;;;4992073;28;91931;-46
2023/12/08 05:14:05;;;;;;;;;;;2.80;85.20;;;;;;4994974;28;93085;-46
2023/12/08 05:16:30;;;;;;;;;;;2.80;85.40;;;;;;4993421;28;92584;-48
2023/12/08 05:18:56;;;;;;;;;;;2.80;85.20;;;;;;4996347;28;92058;-46
2023/12/08 05:21:22;;;;;;;;;;;2.80;85.10;;;;;;4992516;28;91937;-46
2023/12/08 05:23:48;;;;;;;;;;;2.90;85.30;;;;;;4996229;28;92764;-46
2023/12/08 05:26:13;;;;;;;;;;;2.80;85.20;;;;;;4993645;28;91378;-47
2023/12/08 05:28:39;;;;;;;;;;;2.80;85.30;;;;;;4994725;28;91962;-46
2023/12/08 05:31:04;;;;;;;;;;;2.80;85.30;;;;;;4992000;28;92057;-45
2023/12/08 05:33:30;;;;;;;;;;;2.80;85.20;;;;;;4992781;28;92987;-46
2023/12/08 05:35:56;;;;;;;;;;;2.80;85.30;;;;;;4996385;28;92534;-46
2023/12/08 05:38:22;;;;;;;;;;;2.80;85.30;;;;;;4990998;28;92127;-46
2023/12/08 05:40:47;;;;;;;;;;;2.80;85.40;;;;;;4997858;28;92792;-46
2023/12/08 05:43:13;;;;;;;;;;;2.80;85.20;;;;;;4994546;28;92534;-46
2023/12/08 05:45:38;;;;;;;;;;;2.80;85.30;;;;;;4992456;28;92019;-47
2023/12/08 05:48:04;;;;;;;;;;;2.80;85.30;;;;;;4994934;28;92006;-46
2023/12/08 05:50:29;;;;;;;;;;;2.80;85.40;;;;;;4995150;28;91768;-46
2023/12/08 05:52:55;;;;;;;;;;;2.80;85.20;;;;;;4995463;28;92028;-46
2023/12/08 05:55:21;;;;;;;;;;;2.70;85.20;;;;;;4992634;28;92143;-47
2023/12/08 05:57:46;;;;;;;;;;;2.80;85.30;;;;;;4991134;28;93775;-47
2023/12/08 06:00:12;;;;;;;;;;;2.80;85.10;;;;;;4994612;28;93890;-47
2023/12/08 06:02:38;;;;;;;;;;;2.80;85.40;;;;;;4992122;28;92411;-46
2023/12/08 06:05:04;;;;;;;;;;;2.80;85.30;;;;;;4995870;28;91987;-47
2023/12/08 06:07:29;;;;;;;;;;;2.80;85.30;;;;;;4993840;28;91998;-46
2023/12/08 06:09:55;;;;;;;;;;;2.80;85.30;;;;;;4998989;28;95453;-47
2023/12/08 06:12:21;;;;;;;;;;;2.80;85.30;;;;;;4996114;28;92027;-46
2023/12/08 06:14:46;;;;;;;;;;;2.70;85.20;;;;;;4997096;28;92770;-46
2023/12/08 06:17:12;;;;;;;;;;;2.70;85.30;;;;;;4988716;28;92104;-46
2023/12/08 06:19:38;;;;;;;;;;;2.70;85.10;;;;;;4996172;28;92037;-47
2023/12/08 06:22:03;;;;;;;;;;;2.70;85.20;;;;;;4993644;28;94265;-46
2023/12/08 06:24:29;;;;;;;;;;;2.70;85.30;;;;;;4999989;28;92204;-47
2023/12/08 06:26:54;;;;;;;;;;;2.70;85.10;;;;;;4997470;28;91811;-46
2023/12/08 06:29:20;;;;;;;;;;;2.70;85.50;;;;;;5004597;28;92352;-47
2023/12/08 06:31:45;;;;;;;;;;;2.70;85.30;;;;;;4999294;28;92062;-47
2023/12/08 06:34:11;;;;;;;;;;;2.70;85.30;;;;;;5000430;28;91906;-46
2023/12/08 06:36:43;;;;;;;;;;;2.70;85.30;;;;;;5001700;28;92673;-47
2023/12/08 06:39:10;;;;;;;;;;;2.70;85.20;;;;;;5004239;28;91719;-46
2023/12/08 06:41:36;;;;;;;;;;;2.70;85.30;;;;;;5001898;28;92403;-48
2023/12/08 06:44:01;;;;;;;;;;;2.70;85.10;;;;;;4999906;28;92664;-47
2023/12/08 06:46:27;;;;;;;;;;;2.70;85.10;;;;;;4996357;28;92965;-46
2023/12/08 06:48:52;;;;;;;;;;;2.70;85.30;;;;;;5002658;28;92747;-46
2023/12/08 06:51:18;;;;;;;;;;;2.70;85.10;;;;;;5001397;28;92393;-46
2023/12/08 06:53:43;;;;;;;;;;;2.70;85.10;;;;;;5002689;28;92673;-46
2023/12/08 06:56:09;;;;;;;;;;;2.70;85.30;;;;;;5000854;28;92556;-47
2023/12/08 06:58:34;;;;;;;;;;;2.70;85.20;;;;;;5003184;28;94633;-47
2023/12/08 07:01:01;;;;;;;;;;;2.70;85.20;;;;;;4996056;28;93497;-46
2023/12/08 07:03:27;;;;;;;;;;;2.70;85.20;;;;;;4997745;28;91934;-46
2023/12/08 07:05:52;;;;;;;;;;;2.70;85.20;;;;;;5002943;28;92364;-47
2023/12/08 07:08:20;;;;;;;;;;;2.70;85.00;;;;;;5001522;28;93311;-47
2023/12/08 07:10:45;;;;;;;;;;;2.70;85.20;;;;;;4995898;28;93042;-47
2023/12/08 07:13:11;;;;;;;;;;;2.70;85.30;;;;;;4999259;28;93889;-47
2023/12/08 07:15:36;;;;;;;;;;;2.70;85.10;;;;;;5001477;28;93273;-46
2023/12/08 07:18:02;;;;;;;;;;;2.70;85.20;;;;;;5001622;28;92490;-48
2023/12/08 07:20:28;;;;;;;;;;;2.70;85.10;;;;;;4999742;28;92505;-46
2023/12/08 07:22:53;;;;;;;;;;;2.70;85.30;;;;;;4999832;28;93909;-46
2023/12/08 07:25:19;;;;;;;;;;;2.70;85.20;;;;;;5000752;28;92768;-46
2023/12/08 07:27:45;;;;;;;;;;;2.70;85.10;;;;;;5000029;28;92881;-46
2023/12/08 07:30:10;;;;;;;;;;;2.60;85.30;;;;;;5001865;28;92235;-47
2023/12/08 07:32:36;;;;;;;;;;;2.60;85.30;;;;;;5003451;28;92140;-47
2023/12/08 07:35:01;;;;;;;;;;;2.60;85.10;;;;;;4995542;28;94516;-47
2023/12/08 07:37:27;;;;;;;;;;;2.60;85.20;;;;;;4998227;28;92130;-46
2023/12/08 07:39:53;;;;;;;;;;;2.60;85.10;;;;;;4998119;28;92730;-46
2023/12/08 07:42:19;;;;;;;;;;;2.60;85.10;;;;;;4993709;28;92281;-47
2023/12/08 07:44:44;;;;;;;;;;;2.60;85.70;;;;;;4995781;28;91993;-47
2023/12/08 07:47:10;;;;;;;;;;;2.60;85.10;;;;;;4997087;28;92566;-47
2023/12/08 07:49:36;;;;;;;;;;;2.60;85.00;;;;;;4993065;28;92697;-47
2023/12/08 07:52:01;;;;;;;;;;;2.60;85.10;;;;;;4997113;28;92856;-46
2023/12/08 07:54:31;;;;;;;;;;;2.60;85.10;;;;;;5000362;28;92499;-48
2023/12/08 07:56:57;;;;;;;;;;;2.60;85.10;;;;;;4995731;28;92098;-46
2023/12/08 07:59:23;;;;;;;;;;;2.60;85.20;;;;;;4993671;28;92745;-46
2023/12/08 08:01:49;;;;;;;;;;;2.60;85.20;;;;;;4993413;28;92036;-46
2023/12/08 08:04:14;;;;;;;;;;;2.60;85.30;;;;;;4999383;28;91993;-47
2023/12/08 08:06:40;;;;;;;;;;;2.60;85.20;;;;;;4997379;28;92528;-46
2023/12/08 08:09:07;;;;;;;;;;;2.60;85.20;;;;;;4995741;28;92144;-47
2023/12/08 08:11:32;;;;;;;;;;;2.60;85.40;;;;;;4996577;28;92928;-47
2023/12/08 08:13:58;;;;;;;;;;;2.60;85.20;;;;;;4992901;28;92574;-46
2023/12/08 08:16:23;;;;;;;;;;;2.60;85.30;;;;;;4996958;28;93055;-46
2023/12/08 08:18:49;;;;;;;;;;;2.60;85.10;;;;;;4988647;28;92010;-46
2023/12/08 08:21:15;;;;;;;;;;;2.60;85.30;;;;;;5001499;28;92306;-46
2023/12/08 08:23:41;;;;;;;;;;;2.60;85.00;;;;;;4998044;28;93337;-48
2023/12/08 08:26:06;;;;;;;;;;;2.60;85.00;;;;;;4992182;28;94017;-48
2023/12/08 08:28:32;;;;;;;;;;;2.60;85.10;;;;;;4990359;28;92479;-46
2023/12/08 08:30:57;;;;;;;;;;;2.60;85.00;;;;;;4996015;28;92036;-47
2023/12/08 08:33:23;;;;;;;;;;;2.60;85.10;;;;;;4989859;28;93738;-46
2023/12/08 08:35:49;;;;;;;;;;;2.60;85.20;;;;;;4997228;28;92096;-46
2023/12/08 08:38:15;;;;;;;;;;;2.60;85.10;;;;;;4998563;28;91928;-47
2023/12/08 08:40:40;;;;;;;;;;;2.60;85.00;;;;;;5003282;28;91550;-46
2023/12/08 08:43:06;;;;;;;;;;;2.60;85.10;;;;;;4996223;28;92093;-46
2023/12/08 08:45:32;;;;;;;;;;;2.60;85.10;;;;;;4997394;28;92293;-46
2023/12/08 08:47:58;;;;;;;;;;;2.60;85.00;;;;;;4994719;28;92964;-46
2023/12/08 08:50:23;;;;;;;;;;;2.60;85.00;;;;;;4996437;28;93813;-48
2023/12/08 08:52:49;;;;;;;;;;;2.60;85.00;;;;;;4990336;28;93534;-46
2023/12/08 08:55:14;;;;;;;;;;;2.60;84.90;;;;;;4995225;28;92726;-47
2023/12/08 08:57:40;;;;;;;;;;;2.60;85.10;;;;;;4996165;28;93016;-48
2023/12/08 09:00:09;;;;;;;;;;;2.60;84.90;;;;;;4998593;28;92534;-47
2023/12/08 09:02:35;;;;;;;;;;;2.60;84.90;;;;;;4997043;28;92218;-47
2023/12/08 09:05:00;;;;;;;;;;;2.50;84.80;;;;;;4996958;28;91963;-46
2023/12/08 09:07:26;;;;;;;;;;;2.50;85.00;;;;;;4996124;28;92057;-47
2023/12/08 09:09:51;;;;;;;;;;;2.50;84.90;;;;;;4993051;28;92023;-46
2023/12/08 09:12:17;;;;;;;;;;;2.60;84.90;;;;;;4992119;28;94117;-47
2023/12/08 09:14:43;;;;;;;;;;;2.60;85.10;;;;;;4991794;28;94015;-46
2023/12/08 09:17:08;;;;;;;;;;;2.60;84.90;;;;;;4994670;28;92893;-47
2023/12/08 09:19:35;;;;;;;;;;;2.60;85.00;;;;;;4991931;28;92584;-47
2023/12/08 09:22:00;;;;;;;;;;;2.60;84.90;;;;;;4994842;28;92065;-47
2023/12/08 09:24:26;;;;;;;;;;;2.60;84.80;;;;;;4997528;28;92974;-47
2023/12/08 09:26:55;;;;;;;;;;;2.60;84.80;;;;;;4991934;28;92045;-46
2023/12/08 09:29:21;;;;;;;;;;;2.50;84.80;;;;;;4990952;28;91712;-47
2023/12/08 09:31:47;;;;;;;;;;;2.50;84.80;;;;;;4986134;28;93818;-47
2023/12/08 09:34:12;;;;;;;;;;;2.50;85.00;;;;;;4990601;28;92166;-48
2023/12/08 09:36:38;;;;;;;;;;;2.50;84.80;;;;;;4993597;28;92719;-46
2023/12/08 09:39:04;;;;;;;;;;;2.50;84.80;;;;;;4990536;28;92645;-47
2023/12/08 09:41:30;;;;;;;;;;;2.50;84.80;;;;;;4989943;28;92116;-46
2023/12/08 09:43:59;;;;;;;;;;;2.60;84.90;;;;;;4992555;28;92801;-47
2023/12/08 09:46:25;;;;;;;;;;;2.50;84.90;;;;;;5000211;28;93566;-47
2023/12/08 09:48:51;;;;;;;;;;;2.60;84.80;;;;;;4994121;28;93052;-45
2023/12/08 09:51:17;;;;;;;;;;;2.50;84.80;;;;;;4988468;28;92965;-45
2023/12/08 09:53:43;;;;;;;;;;;2.50;85.00;;;;;;4995605;28;91241;-46
2023/12/08 09:56:09;;;;;;;;;;;2.50;85.00;;;;;;4996281;28;92021;-46
2023/12/08 09:58:35;;;;;;;;;;;2.50;85.00;;;;;;4992503;28;93550;-47
2023/12/08 10:01:01;;;;;;;;;;;2.50;85.00;;;;;;4990722;28;92939;-46
2023/12/08 10:03:27;;;;;;;;;;;2.50;84.80;;;;;;4993102;28;92656;-47
2023/12/08 10:05:53;;;;;;;;;;;2.50;85.00;;;;;;4989566;28;92768;-46
2023/12/08 10:08:19;;;;;;;;;;;2.50;84.80;;;;;;4998534;28;92599;-48
2023/12/08 10:10:45;;;;;;;;;;;2.50;84.90;;;;;;4997759;28;93506;-46
2023/12/08 10:13:12;;;;;;;;;;;2.50;84.90;;;;;;4990990;28;92073;-48
2023/12/08 10:15:40;;;;;;;;;;;2.50;85.00;;;;;;4996669;28;92962;-46
2023/12/08 10:18:06;;;;;;;;;;;2.50;85.00;;;;;;4993032;28;92001;-46
2023/12/08 10:20:31;;;;;;;;;;;2.50;85.10;;;;;;4991196;28;92823;-46
2023/12/08 10:22:57;;;;;;;;;;;2.50;85.10;;;;;;5001820;28;92821;-47
2023/12/08 10:25:26;;;;;;;;;;;2.50;85.00;;;;;;4991915;28;93443;-47
2023/12/08 10:27:53;;;;;;;;;;;2.50;84.90;;;;;;4990190;28;91997;-47
2023/12/08 10:30:20;;;;;;;;;;;2.50;85.00;;;;;;4995948;28;92000;-46
2023/12/08 10:32:46;;;;;;;;;;;2.50;85.00;;;;;;4993297;28;91983;-47
2023/12/08 10:35:12;;;;;;;;;;;2.50;85.00;;;;;;4992444;28;91901;-47
2023/12/08 10:37:40;;;;;;;;;;;2.50;84.90;;;;;;4994787;28;91975;-47
2023/12/08 10:40:08;;;;;;;;;;;2.50;85.10;;;;;;4987688;28;92084;-46
2023/12/08 10:42:33;;;;;;;;;;;2.50;85.20;;;;;;4993386;28;92812;-46
2023/12/08 10:44:59;;;;;;;;;;;2.50;85.40;;;;;;4991519;28;93629;-46
2023/12/08 10:47:24;;;;;;;;;;;2.50;85.20;;;;;;4997947;28;92350;-45
2023/12/08 10:49:53;;;;;;;;;;;2.50;85.10;;;;;;4992839;28;92927;-46
2023/12/08 10:52:19;;;;;;;;;;;2.50;85.10;;;;;;4995682;28;92712;-46
2023/12/08 10:54:45;;;;;;;;;;;2.50;85.10;;;;;;4992758;28;92538;-46
2023/12/08 10:57:11;;;;;;;;;;;2.50;85.20;;;;;;4989521;28;92856;-46
2023/12/08 10:59:40;;;;;;;;;;;2.50;85.20;;;;;;4998061;28;92137;-47
2023/12/08 11:02:12;;;;;;;;;;;2.50;85.20;;;;;;4994114;28;93053;-45
2023/12/08 11:04:38;;;;;;;;;;;2.50;85.10;;;;;;4991747;28;93443;-46
2023/12/08 11:07:09;;;;;;;;;;;2.40;85.20;;;;;;4994669;28;92382;-46
2023/12/08 11:09:38;;;;;;;;;;;2.50;85.40;;;;;;4996707;28;91880;-46
2023/12/08 11:12:04;;;;;;;;;;;2.40;85.10;;;;;;4995414;28;92504;-49
2023/12/08 11:14:33;;;;;;;;;;;2.40;85.40;;;;;;4998067;28;92982;-46
2023/12/08 11:17:02;;;;;;;;;;;2.40;85.30;;;;;;4992785;28;92563;-47
2023/12/08 11:19:28;;;;;;;;;;;2.40;85.80;;;;;;4995189;28;92723;-46
2023/12/08 11:21:54;;;;;;;;;;;2.40;85.20;;;;;;4996653;28;92063;-47
2023/12/08 11:24:20;;;;;;;;;;;2.40;85.20;;;;;;4994770;28;93515;-46
2023/12/08 11:27:12;;;;;;;;;;;2.40;85.30;;;;;;4992639;28;92005;-46
2023/12/08 11:29:43;;;;;;;;;;;2.40;85.30;;;;;;4995852;28;92013;-46
2023/12/08 11:32:15;;;;;;;;;;;2.40;85.40;;;;;;4994058;28;91918;-48
2023/12/08 11:34:52;;;;;;;;;;;2.40;85.30;;;;;;4992295;28;91970;-46
2023/12/08 11:37:17;;;;;;;;;;;2.40;85.30;;;;;;4998708;28;93431;-46
2023/12/08 11:39:44;;;;;;;;;;;2.40;85.40;;;;;;5004003;28;93689;-47
2023/12/08 11:42:16;;;;;;;;;;;2.40;85.40;;;;;;4995669;28;93857;-47
2023/12/08 11:44:48;;;;;;;;;;;2.40;85.50;;;;;;4991962;28;93735;-47
2023/12/08 11:47:15;;;;;;;;;;;2.40;85.50;;;;;;4992518;28;92345;-47
2023/12/08 11:49:44;;;;;;;;;;;2.40;85.40;;;;;;4994987;28;93718;-46
2023/12/08 11:52:25;;;;;;;;;;;2.40;85.50;;;;;;4997898;28;92104;-46
2023/12/08 11:55:01;;;;;;;;;;;2.40;85.40;;;;;;4997276;28;92142;-46
2023/12/08 11:57:27;;;;;;;;;;;2.40;85.40;;;;;;5003824;28;92968;-45
2023/12/08 11:59:53;;;;;;;;;;;2.40;85.30;;;;;;4995528;28;92026;-47
2023/12/08 12:02:19;;;;;;;;;;;2.40;85.50;;;;;;4992171;28;92109;-45
2023/12/08 12:04:44;;;;;;;;;;;2.40;85.50;;;;;;4996257;28;93299;-48
2023/12/08 12:07:10;;;;;;;;;;;2.40;85.40;;;;;;4997902;28;92060;-45
2023/12/08 12:09:36;;;;;;;;;;;2.40;85.40;;;;;;4998672;28;94561;-46
2023/12/08 12:12:10;;;;;;;;;;;2.40;85.40;;;;;;4991639;28;93624;-48
2023/12/08 12:14:42;;;;;;;;;;;2.40;85.50;;;;;;4994606;28;91959;-46
2023/12/08 12:17:09;;;;;;;;;;;2.40;85.50;;;;;;4992652;28;93177;-46
2023/12/08 12:19:35;;;;;;;;;;;2.40;85.40;;;;;;4996673;28;92627;-46
2023/12/08 12:22:00;;;;;;;;;;;2.40;85.30;;;;;;4999030;28;91749;-45
2023/12/08 12:24:26;;;;;;;;;;;2.40;85.60;;;;;;4995713;28;92497;-46
2023/12/08 12:26:51;;;;;;;;;;;2.40;85.50;;;;;;4994855;28;92267;-46
2023/12/08 12:29:17;;;;;;;;;;;2.40;85.60;;;;;;4993679;28;93276;-46
2023/12/08 12:31:43;;;;;;;;;;;2.40;85.50;;;;;;4990599;28;92020;-47
2023/12/08 12:34:10;;;;;;;;;;;2.40;85.70;;;;;;4995305;28;92061;-46
2023/12/08 12:36:36;;;;;;;;;;;2.40;85.60;;;;;;4994443;28;93430;-47
2023/12/08 12:39:03;;;;;;;;;;;2.40;85.50;;;;;;4992668;28;93564;-47
2023/12/08 12:41:29;;;;;;;;;;;2.40;85.50;;;;;;5003337;28;92061;-46
2023/12/08 12:43:57;;;;;;;;;;;2.40;85.60;;;;;;4996341;28;93700;-46
2023/12/08 12:46:25;;;;;;;;;;;2.40;85.50;;;;;;4989600;28;91391;-45
2023/12/08 12:48:52;;;;;;;;;;;2.30;85.60;;;;;;4996342;28;93962;-46
2023/12/08 12:51:36;;;;;;;;;;;2.40;85.50;;;;;;4992492;28;93599;-46
2023/12/08 12:54:03;;;;;;;;;;;2.40;85.50;;;;;;4994751;28;93031;-46
2023/12/08 12:56:31;;;;;;;;;;;2.40;85.60;;;;;;4992511;28;93959;-46
2023/12/08 12:59:03;;;;;;;;;;;2.40;85.60;;;;;;4992542;28;92788;-47
2023/12/08 13:01:29;;;;;;;;;;;2.40;85.70;;;;;;4997757;28;91882;-47
2023/12/08 13:03:55;;;;;;;;;;;2.40;85.60;;;;;;4998757;28;92133;-47
2023/12/08 13:06:29;;;;;;;;;;;2.40;85.70;;;;;;4992765;28;92803;-47
2023/12/08 13:08:56;;;;;;;;;;;2.40;85.60;;;;;;4992118;28;91893;-47
2023/12/08 13:11:21;;;;;;;;;;;2.30;85.60;;;;;;4995272;28;91704;-45
2023/12/08 13:13:47;;;;;;;;;;;2.30;85.70;;;;;;4996784;28;92239;-46
2023/12/08 13:16:12;;;;;;;;;;;2.40;85.50;;;;;;4993207;28;91983;-46
2023/12/08 13:18:47;;;;;;;;;;;2.30;85.60;;;;;;4988552;28;93425;-46
2023/12/08 13:21:15;;;;;;;;;;;2.40;86.00;;;;;;4997003;28;92007;-46
2023/12/08 13:23:41;;;;;;;;;;;2.40;85.60;;;;;;4994800;28;92822;-47
2023/12/08 13:26:07;;;;;;;;;;;2.40;85.50;;;;;;4993405;28;93470;-47
2023/12/08 13:28:33;;;;;;;;;;;2.30;85.50;;;;;;4994173;28;92709;-47
2023/12/08 13:30:58;;;;;;;;;;;2.30;85.50;;;;;;4995123;28;93597;-46
2023/12/08 13:33:25;;;;;;;;;;;2.30;85.60;;;;;;4991077;28;92473;-46
2023/12/08 13:35:54;;;;;;;;;;;2.30;85.50;;;;;;4995982;28;92968;-46
2023/12/08 13:38:22;;;;;;;;;;;2.40;85.50;;;;;;4992438;28;93288;-45
2023/12/08 13:40:49;;;;;;;;;;;2.40;85.60;;;;;;4993017;28;92298;-46
2023/12/08 13:43:14;;;;;;;;;;;2.40;85.70;;;;;;4994029;28;94701;-47
2023/12/08 13:45:40;;;;;;;;;;;2.30;85.50;;;;;;4995827;28;92550;-46
2023/12/08 13:48:06;;;;;;;;;;;2.30;85.70;;;;;;4998055;28;92114;-46
2023/12/08 13:50:31;;;;;;;;;;;2.30;85.60;;;;;;4999519;28;92414;-47
2023/12/08 13:52:57;;;;;;;;;;;2.30;85.70;;;;;;4989096;28;93577;-46
2023/12/08 13:55:22;;;;;;;;;;;2.30;85.80;;;;;;4994624;28;92377;-46
2023/12/08 13:57:48;;;;;;;;;;;2.30;86.00;;;;;;4994081;28;92553;-47
2023/12/08 14:00:14;;;;;;;;;;;2.30;85.70;;;;;;4999936;28;91351;-46
2023/12/08 14:02:40;;;;;;;;;;;2.30;85.70;;;;;;4991545;28;93013;-47
2023/12/08 14:05:07;;;;;;;;;;;2.30;85.90;;;;;;4988683;28;93739;-46
2023/12/08 14:07:33;;;;;;;;;;;2.30;85.60;;;;;;4993356;28;94568;-46
2023/12/08 14:09:59;;;;;;;;;;;2.30;85.60;;;;;;4994395;28;92491;-47
2023/12/08 14:12:24;;;;;;;;;;;2.30;85.70;;;;;;4985693;28;92252;-47
2023/12/08 14:14:50;;;;;;;;;;;2.30;85.60;;;;;;4996781;28;92093;-46
2023/12/08 14:17:15;;;;;;;;;;;2.30;85.70;;;;;;4994928;28;92592;-46
2023/12/08 14:19:41;;;;;;;;;;;2.30;85.60;;;;;;4994346;28;92043;-47
2023/12/08 14:22:07;;;;;;;;;;;2.30;85.70;;;;;;4998679;28;92592;-46
2023/12/08 14:24:33;;;;;;;;;;;2.30;85.60;;;;;;4990117;28;92692;-46